Extreme weather reports worldwide

Rain

Station
 
Location
 
Name
 
Wind
Knots
Gust
Knots
Vis
SM
Temp/Dew
C
Baro
inHg
METAR
 
VAW ENSS Vardø, NO Vardø Airport, Svartnes 25 35 6.21 1/-2 29.70 ENSS 070950Z 09025G35KT 9999 -SHRA BKN015 01/M02 Q1006 RMK WIND 500FT /////KT
KVC PAVC King Cove, US King Cove Airport 24 33 9 4/2 29.44 PAVC 070956Z AUTO 06024G33KT 9SM -RA OVC013 04/03 A2944 RMK AO2 PK WND 06034/0909 SLP971 T00440028 PNO $
ACP OITM Maragheh, IR Sahand Airport 19 33 4.97 16/7 29.97 OITM 071000Z 27019G33KT 8000 TSRA SCT035CB BKN170 16/07 Q1015
STG PAPB St George, US St George Airport 24 29 8 3/2 29.41 PAPB 070953Z AUTO 08024G29KT 8SM -RA OVC008 03/03 A2941 RMK AO2 PK WND 08029/0911 RAB0858 SLP947 P0001 T00330028 TSNO
ENUG 18 29 2/-1 29.73 ENUG 070950Z AUTO 10018G29KT 9999NDV -SHRA SCT004/// BKN020/// BKN034/// 02/M01 Q1007 W///S4

Station
 
Location
 
Name
 
Wind
Knots
Gust
Knots
Vis
SM
Temp/Dew
C
Baro
inHg
METAR
 
WIE ETOU Wiesbaden, DE Wiesbaden Army Airfield 11 28 3.73 5/2 29.96 ETOU 071001Z AUTO 31011G28KT 6000 -RA BKN018 BKN055 OVC070 05/02 A2996 RMK AO2 CIG 018V070 CIG 013 RWY07 SLP152 $
KFP PAKF False Pass, US False Pass Airport 18 26 5 4/3 29.42 PAKF 070956Z AUTO 10018G26KT 5SM -RA BR OVC009 04/03 A2942 RMK AO2 PK WND 12031/0906 CIG 007V012 SLP963 P0007 T00440033
ETSH DE Holzdorf Air Base 15 26 6.21 5/3 29.79 ETSH 070920Z 30015G26KT 9999 -RA FEW007 BKN010 BKN020 05/03 Q1009 GRN GRN BECMG WHT
YJT CYJT Stephenville, CA Stephenville Airport 19 24 12 4/2 29.79 CYJT 071000Z 06019G24KT 12SM -RA FEW015 SCT030 BKN060 04/02 A2979 RMK SF1SC3SC3 SLP090
YXS CYXS Prince George, CA Prince George Airport 12 24 9 5/3 29.82 CYXS 071000Z AUTO 26012G24KT 9SM -RA BKN017 OVC038 05/03 A2982 RMK PRESRR SLP110
CMH KCMH Columbus, US John Glenn Columbus International Airport 14 21 10 8/6 29.90 KCMH 070951Z 33014G21KT 10SM -RA SCT010 SCT016 OVC060 08/07 A2990 RMK AO2 SLP125 P0001 T00830067
NJC USNN Nizhnevartovsk, RU Nizhnevartovsk Airport 12 21 6.21 5/-1 29.73 USNN 071000Z 27006G11MPS 9999 -SHRA BKN033CB 05/M01 Q1007 R21/29//58 NOSIG RMK QFE750
ENNE 11 21 5.59 2/-1 29.68 ENNE 070920Z 36011G21KT 340V040 9000 -SHRASN BKN020CB 02/M01 Q1005 W///S3
IEG EPZG Babimost, PL Zielona Góra-Babimost Airport 9 20 5.59 7/4 29.73 EPZG 071000Z 19009G20KT 170V230 9000 -SHRA OVC023CB 07/04 Q1007
YPR CYPR Prince Rupert, CA Prince Rupert Airport 11 19 9 7/3 29.89 CYPR 071002Z AUTO 14011G19KT 9SM -RA BKN038 BKN050 OVC071 07/03 A2989 RMK SLP123
CEG EGNR Hawarden, GB Hawarden Airport 8 18 6.21 7/4 30.00 EGNR 070950Z 29008G18KT 250V320 9999 -SHRA SCT020CB SCT041 07/04 Q1016 RESHRA
JVL KJVL Janesville, US Southern Wisconsin Regional Airport 11 17 10 8/2 29.99 KJVL 070935Z AUTO 29011G17KT 10SM -RA SCT039 BKN050 OVC080 08/02 A2999 RMK AO2
YMN CYFT Makkovik, CA Makkovik Airport 9 16 1.25 0/-1 30.18 CYFT 071000Z 10009G16KT 1 1/4SM -FZDZ -FZRA OVC004 M00/M01 A3018 RMK ST8 SLP227
K4I3 9 14 10 7/5 29.90 K4I3 070955Z AUTO 33009G14KT 10SM -RA SCT007 SCT013 BKN033 07/05 A2990 RMK AO2 P0008
ETIH DE Hohenfels Army Air Field 9 14 6.21 8/1 29.85 ETIH 071005Z AUTO 30009G14KT 9999 -RA SCT030 SCT035 BKN042 BKN055 BKN080 08/01 A2985 RMK AO2 RAB05 SLP117 $
RLG ETNL Rostock, DE Rostock-Laage Airport 20 6.21 6/2 29.73 ETNL 071000Z 29020KT 9999 -SHRA FEW030TCU BKN040 06/02 Q1007 BLU FCST CNL
IXA VEAT Agartala, IN Agartala Airport 20 1.24 28/25 29.85 VEAT 071000Z 28020KT 2000 TSRA FEW008 SCT016 FEW030CB OVC090 28/25 Q1011 TEMPO 1500 TSRA
AWK PWAK Wake Island, UM Wake Island Airfield 18 6.21 25/22 30.00 PWAK 070958Z AUTO 04018KT 9999 -RA SCT019 SCT043 BKN050 BKN075 26/22 A3000 RMK AO2 PK WND 04026/33 RAB34E47RAB55 SLP165 P0000 T02550222 $
THN ESGT Trollhättan, SE Trollhättan-Vänersborg Airport 17 6.21 4/2 29.68 ESGT 070950Z 35017KT 9999 SHRA SCT016 SCT025CB OVC055 04/02 Q1005
MAJ PKMJ Majuro Atoll, MH Marshall Islands International Airport 15 10 27/24 29.83 PKMJ 070955Z 04015KT 10SM -SHRA SCT014TCU BKN045 OVC110 27/24 A2983 RMK TCU ALQDS
KAJ EFKI Kajaani, FI Kajaani Airport 15 3.73 -1/-2 29.38 EFKI 070950Z AUTO 27015KT 6000 -FZRASN OVC007 M01/M02 Q0995
KSF EDVK Kassel, DE Kassel-Calden Airport 14 6.21 5/1 29.88 EDVK 070950Z 28014KT 9999 -RA FEW018 BKN031 05/01 Q1012
XFW EDHI Hamburg, DE Hamburg-Finkenwerder Airport 14 6.21 6/4 29.79 EDHI 070950Z 28014KT 260V320 9999 -SHRA SCT022CB 06/04 Q1009
PKMR 14 10 26/23 29.83 PKMR 070953Z 06014KT 10SM -SHRA SCT012CB BKN045 OVC110 26/24 A2983 RMK TSB14E30 CB ALQDS MOV SW SLP102 T02630235
ESCM SE Uppsala Airport 13 6.21 4/2 29.62 ESCM 070950Z 36013KT 9999 -RA FEW012 BKN018 BKN150 04/02 Q1003
LKL ENNA Lakselv, NO Banak Airport 13 6.21 1/-3 29.70 ENNA 070950Z 02013KT 9999 -RA BKN026 01/M03 Q1006 RMK WIND 1800FT 07024KT
KRF ESNK Kramfors / Sollefteå, SE Kramfors Sollefteå Airport 12 6.21 4/-4 29.62 ESNK 070950Z AUTO 04012KT 9999 -RA FEW005/// BKN055/// OVC072/// 04/M04 Q1003 REDZ
VVO UHWW Vladivostok, RU Vladivostok International Airport 12 4.97 12/10 29.20 UHWW 071000Z 16006MPS 8000 -SHRA SCT013 BKN026CB 12/10 Q0989 R25L/19//65 NOSIG RMK QFE741
UAAT Ak Bashat village, KG Ak Bashat Airport 12 6.21 22/10 29.97 UAAT 071000Z 27006MPS 9999 -SHRA BKN050CB OVC100 22/10 Q1015 R20/CLRD65 NOSIG RMK QFE710/0946
DCM LFCK Castres/Mazamet, FR Castres-Mazamet Airport 11 2.92 14/13 30.12 LFCK 071000Z AUTO 32011KT 280V350 4700 -RA BR BKN007 OVC016 14/13 Q1020 BECMG 9999 NSW BKN020
EGS BIEG Egilsstaðir, IS Egilsstaðir Airport 11 4.97 0/-3 30.12 BIEG 071000Z 36011KT 8000 -SHRASN BKN027 OVC036 M00/M03 Q1020
FRA EDDF Frankfurt am Main, DE Frankfurt am Main Airport 11 6.21 10/0 29.91 EDDF 070950Z 22011KT 190V250 9999 -SHRA FEW008 SCT030CB SCT040TCU 10/00 Q1013 TEMPO 29015G25KT TSRA
SXF EDDB Berlin, DE Berlin-Schönefeld Airport 11 2.55 2/1 29.79 EDDB 070950Z 30011KT 4100 SNRA BKN005 02/01 Q1009 TEMPO 1400 SN BKN004
RNB ESDF SE Ronneby Airport 11 6.21 4/3 29.68 ESDF 070950Z 04011KT 9999 -SHRA BKN010 04/03 Q1005
YPX CYPX Puvirnituq, CA Puvirnituq Airport 11 9 1/1 29.87 CYPX 071000Z AUTO 09011KT 9SM -RA BKN008 OVC013 01/01 A2987 RMK SLP118
ZSE FMEP St Pierre, RE Pierrefonds Airport 10 6.21 24/20 29.88 FMEP 071000Z AUTO 20010KT 160V240 9999 -RA FEW014/// OVC058/// ///TCU 24/20 Q1012 TEMPO 4000 SHRA BKN033
OVG FAOB Overberg, ZA Overberg Airport 10 16/15 30.03 FAOB 071000Z 32010KT 5000-RA OVC005 16/15 Q1017
AGB EDMA Augsburg, DE Augsburg Airport 10 6.21 7/4 29.91 EDMA 070950Z 30010KT 9999 -RA FEW011 BKN014 07/04 Q1013
GEG KGEG Spokane, US Spokane International Airport 10 10 9/3 29.99 KGEG 070953Z 20010KT 10SM -RA FEW075 BKN085 BKN200 09/04 A2999 RMK AO2 SLP143 P0000 T00940039
MUC EDDM Munich, DE Munich Airport 10 6.21 7/4 29.88 EDDM 070950Z 29010KT 250V330 9999 -RA FEW011 BKN016 BKN029 07/04 Q1012 NOSIG
GNA UMMG Hrodna, BY Hrodna Airport 10 3.11 6/4 29.68 UMMG 071000Z 01005MPS 5000 -RA OVC008 06/04 Q1005 R35/190065 NOSIG
RFD KRFD Chicago/Rockford, US Chicago Rockford International Airport 10 10 10/0 30.02 KRFD 070954Z 29010KT 10SM -RA FEW050 BKN070 OVC085 11/01 A3002 RMK AO2 RAB52 SLP166 P0000 T01060006
FAE EKVG Vagar, FO Vagar Airport 10 6.21 3/2 29.94 EKVG 070950Z 34010KT 9999 -SHRA FEW016 BKN020 03/02 Q1014
YQZ CYQZ Quesnel, CA Quesnel Airport 10 9 7/3 29.86 CYQZ 071000Z AUTO 31010KT 9SM RA OVC037 07/03 A2986 RMK PRESRR SLP124
BOI KBOI Boise, US Boise Air Terminal/Gowen Field 10 10 14/3 29.91 KBOI 070953Z 32010KT 10SM -RA BKN110 14/03 A2991 RMK AO2 SLP101 P0000 T01440033